Sault Ste. Marie, Ontario

10:09 AM EDT on April 26, 2015 (GMT -0400)
IONSAULT2 | | Change Station
CLOSE
Current Station
Personal Weather Station
Location: Sault Ste. Marie, ON
Elevation: 684 ft
Nearby Weather Stations

Elev 684 ft 46.55 °N, 84.41 °W | Updated 9 seconds ago

Mostly Cloudy
Mostly Cloudy
40.6 °F
Feels Like 41 °F
N
0.0
Wind Variable Wind from NNW
Gusts 8.1 mph

Today is forecast to be nearly the same temperature as yesterday.

Today
High -- | Low -- °F
--% Chance of Precip.
Yesterday
High -- | Low -- °F
Precip. -- in
6:31 AM 8:40 PM
First Quarter, 56% visible
Pressure 30.06 in
Visibility 15.0 miles
Clouds Scattered Clouds 7400 ft
Mostly Cloudy 12000 ft
Windchill 41 °F
Dew Point 18 °F
Humidity 42%
Rainfall 0.00 in
Snow Depth Not available.
UV 2 out of 12
Pollen Not available.
Air Quality Not available.
Flu Activity Not available.
METAR CYAM 261400Z 30007KT 15SM SCT074 BKN120 01/M02 A3003 RMK AC4AC2 CC TR SLP177

More Conditions Fewer Conditions

Pressure 30.06 in
Visibility 15.0 miles
Clouds Scattered Clouds 7400 ft
Mostly Cloudy 12000 ft
Windchill 41 °F
Dew Point 18 °F
Humidity 42%
Rainfall 0.00 in
Snow Depth Not available.
UV 2 out of 12
Pollen Not available.
Air Quality Not available.
Flu Activity Not available.
METAR CYAM 261400Z 30007KT 15SM SCT074 BKN120 01/M02 A3003 RMK AC4AC2 CC TR SLP177

More Conditions Fewer Conditions

10-Day Weather Forecast

Almanac

Astronomy

Apr. 26, 2015 Rise Set
Actual Time
Civil Twilight
Nautical Twilight
Astronomical Twilight
Moon
Length of Visible Light
Length of Day
Tomorrow will be .
, % of the Moon is Illuminated

Today's Extremes

Country Highs Country Lows

Community

WunderPhotos

Upload Photos

1,817,007 photos uploaded!

WunderBlogs® & News

Nearby

Air Quality

  Air Quality AQ Index Pollutant
Not available.

Snow Depth

Station Depth Elevation

Earthquake Activity

City Distance Mag. Time & Date
Minimum magnitude displayed is 2.5.

Coastal Water Temperatures

Place Temperature

Stations

Nearby Weather Stations

Station Location Temp. Windchill Dew Point Humidity Wind Precip. Elev Updated Type